Sac River (Missouri), Caplinger Mills (06919900)

StateMissouriLatestHigh (6600 cfs)
RiverSac RiverRatingObservedEstimated
Updated2020-02-25 15:45 (49 minutes ago)Flood - The river is flooding. Obstacles can be treacherous or deadly. The river should be avoided at this stage for casual trips and definitely for the inexperienced. Trips should be attempted only with protective gear and equipment.Flood(none)6710
Discharge6600 cfs (median: 1510 cfs)High - The river is high and potentially dangerous, especially for the young and / or inexperienced. Normal stream obstacles are sometimes difficult to navigate. Extended distances can be attempted, but canoe travel may not be advisable.High(none)2110
Height14.5 feetGood - Conditions are ideal for a canoe or kayak. Boats typically will drag on fewer than one-quarter of riffles, if at all, and portages are unnecessary or rare. Normal float lengths can be attempted without a problem.Good(none)1503
TrendFalling (rising over 24 hours)Low - River is low but can still be floated. Some riffles are okay but most come with significant dragging and might need a portage. Float lengths should be reduced to accommodate low flow, dragging, and portages.Low601124
USGSExternal icon USGS Site (External icon Google Maps)Poor - River is too low to float comfortably. Most or all riffles will drag or must be portaged and some obstacles (such as slick shelf rock) cause undue problems. Avoid the river at this stage for casual paddling trips.Poor(none)72

Trending Data

Plot Image

Trips for Sac River (Missouri), Caplinger Mills (06919900)

DateStartEndDistanceConditionDischargeHeightFishingDetails
Click for details2014-08-17 Caplinger Mills Rt N Total trip distance: 0.7 miles0.7 Low 45 4.76 Poor NoneNone Bowe, Michelle
Edmond, Brian
Edmond, Julian
Bowe, Michelle; Edmond, Brian; Edmond, Julian
Water level and flow was very low. However, much of the distance was a pool or had sufficient flow to carry the canoe. The boat ramp at Caplinger Mills was primitive and difficult to use with just a 2WD van.Water level and flow was very low. However, much of the distance was a pool or had sufficient flow to carry the canoe. The boat ramp at Caplinger Mills was primitive and difficult to use with just a 2WD van. USGS Gauge Data:
Caplinger Mills (06919900)
Discharge: 45
Height: 4.76
<b>USGS Gauge Data:</b></br />Caplinger Mills (06919900)<br />Discharge: 45<br />Height: 4.76
Source: EdmondSource: Edmond

A total of 1 rows are displayed.

Trip Summary for Sac River (Missouri), Caplinger Mills (06919900)

Miles0.7
Trips1
People3
Dates1
Years1
Months1
Rows1
Sources1

Condition Descriptions

Fishing Conditions

Fish Species

Notes

Classic Trip List

The classic River Trips application is still available for use. It is updated with the new system using a data retrofit. It is no longer maintained. The original River Trips application is no longer updated (as of 1 Dec 2016) but can be checked for errors or for the condition of the data before it was converted to the new system.

Gauge Data Table

ObservationHeightDischargeMaximum
Discharge
Minimum
Discharge
Mean
Discharge
P05P10P20P25P50
(Median)
P75P80P90P95
2020-02-25 15:45 14.50 6600 13600 (1985) 75 (2006) 2510 92 106 436 520 1510 3110 3540 6600 11000
2020-02-25 14:45 14.81 6940 13600 (1985) 75 (2006) 2510 92 106 436 520 1510 3110 3540 6600 11000
2020-02-25 13:45 15.08 7240 13600 (1985) 75 (2006) 2510 92 106 436 520 1510 3110 3540 6600 11000
2020-02-25 12:45 15.40 7590 13600 (1985) 75 (2006) 2510 92 106 436 520 1510 3110 3540 6600 11000
2020-02-25 11:45 15.67 7890 13600 (1985) 75 (2006) 2510 92 106 436 520 1510 3110 3540 6600 11000
2020-02-25 10:45 15.99 8250 13600 (1985) 75 (2006) 2510 92 106 436 520 1510 3110 3540 6600 11000
2020-02-25 09:45 16.26 8560 13600 (1985) 75 (2006) 2510 92 106 436 520 1510 3110 3540 6600 11000
2020-02-25 08:45 16.55 8890 13600 (1985) 75 (2006) 2510 92 106 436 520 1510 3110 3540 6600 11000
2020-02-25 07:45 16.83 9220 13600 (1985) 75 (2006) 2510 92 106 436 520 1510 3110 3540 6600 11000
2020-02-25 06:45 17.11 9560 13600 (1985) 75 (2006) 2510 92 106 436 520 1510 3110 3540 6600 11000
2020-02-25 05:45 17.35 9850 13600 (1985) 75 (2006) 2510 92 106 436 520 1510 3110 3540 6600 11000
2020-02-25 04:45 17.43 9950 13600 (1985) 75 (2006) 2510 92 106 436 520 1510 3110 3540 6600 11000
2020-02-25 03:45 17.48 10000 13600 (1985) 75 (2006) 2510 92 106 436 520 1510 3110 3540 6600 11000
2020-02-25 02:45 17.43 9950 13600 (1985) 75 (2006) 2510 92 106 436 520 1510 3110 3540 6600 11000
2020-02-25 01:45 17.15 9610 13600 (1985) 75 (2006) 2510 92 106 436 520 1510 3110 3540 6600 11000
2020-02-25 00:45 16.70 9070 13600 (1985) 75 (2006) 2510 92 106 436 520 1510 3110 3540 6600 11000
2020-02-24 23:45 16.11 8390 26900 (1985) 74 (2006) 2400 93 107 277 319 1490 2810 3450 5190 6530
2020-02-24 22:45 15.44 7630 26900 (1985) 74 (2006) 2400 93 107 277 319 1490 2810 3450 5190 6530
2020-02-24 21:45 14.90 7040 26900 (1985) 74 (2006) 2400 93 107 277 319 1490 2810 3450 5190 6530
2020-02-24 20:45 14.51 6610 26900 (1985) 74 (2006) 2400 93 107 277 319 1490 2810 3450 5190 6530
2020-02-24 19:45 14.16 6240 26900 (1985) 74 (2006) 2400 93 107 277 319 1490 2810 3450 5190 6530
2020-02-24 18:45 13.77 5830 26900 (1985) 74 (2006) 2400 93 107 277 319 1490 2810 3450 5190 6530
2020-02-24 17:45 13.29 5340 26900 (1985) 74 (2006) 2400 93 107 277 319 1490 2810 3450 5190 6530
2020-02-24 16:45 12.72 4780 26900 (1985) 74 (2006) 2400 93 107 277 319 1490 2810 3450 5190 6530
2020-02-24 15:45 12.13 4220 26900 (1985) 74 (2006) 2400 93 107 277 319 1490 2810 3450 5190 6530
2020-02-24 14:45 11.56 3710 26900 (1985) 74 (2006) 2400 93 107 277 319 1490 2810 3450 5190 6530
2020-02-24 13:45 10.99 3230 26900 (1985) 74 (2006) 2400 93 107 277 319 1490 2810 3450 5190 6530
2020-02-24 12:45 10.44 2780 26900 (1985) 74 (2006) 2400 93 107 277 319 1490 2810 3450 5190 6530
2020-02-24 11:45 9.92 2390 26900 (1985) 74 (2006) 2400 93 107 277 319 1490 2810 3450 5190 6530
2020-02-24 10:45 9.39 2010 26900 (1985) 74 (2006) 2400 93 107 277 319 1490 2810 3450 5190 6530
2020-02-24 09:45 8.89 1680 26900 (1985) 74 (2006) 2400 93 107 277 319 1490 2810 3450 5190 6530
2020-02-24 08:45 8.49 1430 26900 (1985) 74 (2006) 2400 93 107 277 319 1490 2810 3450 5190 6530
2020-02-24 07:45 8.16 1220 26900 (1985) 74 (2006) 2400 93 107 277 319 1490 2810 3450 5190 6530
2020-02-24 06:45 7.92 1080 26900 (1985) 74 (2006) 2400 93 107 277 319 1490 2810 3450 5190 6530
2020-02-24 05:45 7.77 994 26900 (1985) 74 (2006) 2400 93 107 277 319 1490 2810 3450 5190 6530
2020-02-24 04:45 7.69 949 26900 (1985) 74 (2006) 2400 93 107 277 319 1490 2810 3450 5190 6530
2020-02-24 03:45 7.68 944 26900 (1985) 74 (2006) 2400 93 107 277 319 1490 2810 3450 5190 6530
2020-02-24 02:45 7.75 983 26900 (1985) 74 (2006) 2400 93 107 277 319 1490 2810 3450 5190 6530
2020-02-24 01:45 7.87 1050 26900 (1985) 74 (2006) 2400 93 107 277 319 1490 2810 3450 5190 6530
2020-02-24 00:45 8.05 1160 26900 (1985) 74 (2006) 2400 93 107 277 319 1490 2810 3450 5190 6530
2020-02-23 23:45 8.31 1320 33200 (1985) 75 (2006) 2810 95 111 199 375 1860 3370 3940 5230 8410
2020-02-23 22:45 8.62 1510 33200 (1985) 75 (2006) 2810 95 111 199 375 1860 3370 3940 5230 8410
2020-02-23 21:45 9.00 1750 33200 (1985) 75 (2006) 2810 95 111 199 375 1860 3370 3940 5230 8410
2020-02-23 20:45 9.43 2040 33200 (1985) 75 (2006) 2810 95 111 199 375 1860 3370 3940 5230 8410
2020-02-23 19:45 9.89 2370 33200 (1985) 75 (2006) 2810 95 111 199 375 1860 3370 3940 5230 8410
2020-02-23 18:45 10.37 2730 33200 (1985) 75 (2006) 2810 95 111 199 375 1860 3370 3940 5230 8410
2020-02-23 17:45 10.82 3090 33200 (1985) 75 (2006) 2810 95 111 199 375 1860 3370 3940 5230 8410
2020-02-23 16:45 11.22 3420 33200 (1985) 75 (2006) 2810 95 111 199 375 1860 3370 3940 5230 8410
2020-02-23 15:45 11.49 3650 33200 (1985) 75 (2006) 2810 95 111 199 375 1860 3370 3940 5230 8410
2020-02-23 14:45 11.56 3710 33200 (1985) 75 (2006) 2810 95 111 199 375 1860 3370 3940 5230 8410
2020-02-23 13:45 11.37 3550 33200 (1985) 75 (2006) 2810 95 111 199 375 1860 3370 3940 5230 8410
2020-02-23 12:45 10.91 3160 33200 (1985) 75 (2006) 2810 95 111 199 375 1860 3370 3940 5230 8410
2020-02-23 11:45 10.38 2740 33200 (1985) 75 (2006) 2810 95 111 199 375 1860 3370 3940 5230 8410
2020-02-23 10:45 10.16 2570 33200 (1985) 75 (2006) 2810 95 111 199 375 1860 3370 3940 5230 8410
2020-02-23 09:45 10.40 2750 33200 (1985) 75 (2006) 2810 95 111 199 375 1860 3370 3940 5230 8410
2020-02-23 08:45 10.91 3160 33200 (1985) 75 (2006) 2810 95 111 199 375 1860 3370 3940 5230 8410
2020-02-23 07:45 11.47 3630 33200 (1985) 75 (2006) 2810 95 111 199 375 1860 3370 3940 5230 8410
2020-02-23 06:45 11.98 4080 33200 (1985) 75 (2006) 2810 95 111 199 375 1860 3370 3940 5230 8410
2020-02-23 05:45 12.38 4450 33200 (1985) 75 (2006) 2810 95 111 199 375 1860 3370 3940 5230 8410
2020-02-23 04:45 12.63 4690 33200 (1985) 75 (2006) 2810 95 111 199 375 1860 3370 3940 5230 8410
2020-02-23 03:45 12.60 4660 33200 (1985) 75 (2006) 2810 95 111 199 375 1860 3370 3940 5230 8410
2020-02-23 02:45 12.31 4390 33200 (1985) 75 (2006) 2810 95 111 199 375 1860 3370 3940 5230 8410
2020-02-23 01:45 11.73 3860 33200 (1985) 75 (2006) 2810 95 111 199 375 1860 3370 3940 5230 8410
2020-02-23 00:45 11.01 3240 33200 (1985) 75 (2006) 2810 95 111 199 375 1860 3370 3940 5230 8410
2020-02-22 23:45 10.40 2750 17400 (1997) 76 (2006) 2310 97 113 187 300 1520 3090 3920 4570 10000
2020-02-22 22:45 10.16 2570 17400 (1997) 76 (2006) 2310 97 113 187 300 1520 3090 3920 4570 10000
2020-02-22 21:45 10.40 2750 17400 (1997) 76 (2006) 2310 97 113 187 300 1520 3090 3920 4570 10000
2020-02-22 20:45 10.90 3150 17400 (1997) 76 (2006) 2310 97 113 187 300 1520 3090 3920 4570 10000
2020-02-22 19:45 11.45 3620 17400 (1997) 76 (2006) 2310 97 113 187 300 1520 3090 3920 4570 10000
2020-02-22 18:45 11.96 4070 17400 (1997) 76 (2006) 2310 97 113 187 300 1520 3090 3920 4570 10000
2020-02-22 17:45 12.36 4430 17400 (1997) 76 (2006) 2310 97 113 187 300 1520 3090 3920 4570 10000
2020-02-22 16:45 12.60 4660 17400 (1997) 76 (2006) 2310 97 113 187 300 1520 3090 3920 4570 10000
2020-02-22 15:45 12.59 4650 17400 (1997) 76 (2006) 2310 97 113 187 300 1520 3090 3920 4570 10000
2020-02-22 14:45 12.27 4350 17400 (1997) 76 (2006) 2310 97 113 187 300 1520 3090 3920 4570 10000
2020-02-22 13:45 11.69 3830 17400 (1997) 76 (2006) 2310 97 113 187 300 1520 3090 3920 4570 10000
2020-02-22 12:45 10.99 3230 17400 (1997) 76 (2006) 2310 97 113 187 300 1520 3090 3920 4570 10000
2020-02-22 11:45 10.41 2760 17400 (1997) 76 (2006) 2310 97 113 187 300 1520 3090 3920 4570 10000
2020-02-22 10:45 10.19 2590 17400 (1997) 76 (2006) 2310 97 113 187 300 1520 3090 3920 4570 10000
2020-02-22 09:45 10.44 2780 17400 (1997) 76 (2006) 2310 97 113 187 300 1520 3090 3920 4570 10000
2020-02-22 08:45 10.95 3190 17400 (1997) 76 (2006) 2310 97 113 187 300 1520 3090 3920 4570 10000
2020-02-22 07:45 11.51 3670 17400 (1997) 76 (2006) 2310 97 113 187 300 1520 3090 3920 4570 10000
2020-02-22 06:45 12.03 4130 17400 (1997) 76 (2006) 2310 97 113 187 300 1520 3090 3920 4570 10000
2020-02-22 05:45 12.44 4510 17400 (1997) 76 (2006) 2310 97 113 187 300 1520 3090 3920 4570 10000
2020-02-22 04:45 12.69 4750 17400 (1997) 76 (2006) 2310 97 113 187 300 1520 3090 3920 4570 10000
2020-02-22 03:45 12.68 4740 17400 (1997) 76 (2006) 2310 97 113 187 300 1520 3090 3920 4570 10000
2020-02-22 02:45 12.37 4440 17400 (1997) 76 (2006) 2310 97 113 187 300 1520 3090 3920 4570 10000
2020-02-22 01:45 11.79 3910 17400 (1997) 76 (2006) 2310 97 113 187 300 1520 3090 3920 4570 10000
2020-02-22 00:45 11.08 3300 17400 (1997) 76 (2006) 2310 97 113 187 300 1520 3090 3920 4570 10000
2020-02-21 23:45 10.46 2800 14300 (1997) 74 (2006) 1850 89 111 234 286 983 2640 3300 4660 5850
2020-02-21 22:45 10.21 2610 14300 (1997) 74 (2006) 1850 89 111 234 286 983 2640 3300 4660 5850
2020-02-21 21:45 10.43 2780 14300 (1997) 74 (2006) 1850 89 111 234 286 983 2640 3300 4660 5850
2020-02-21 20:45 10.93 3180 14300 (1997) 74 (2006) 1850 89 111 234 286 983 2640 3300 4660 5850
2020-02-21 19:45 11.48 3640 14300 (1997) 74 (2006) 1850 89 111 234 286 983 2640 3300 4660 5850
2020-02-21 18:45 11.99 4090 14300 (1997) 74 (2006) 1850 89 111 234 286 983 2640 3300 4660 5850
2020-02-21 17:45 12.38 4450 14300 (1997) 74 (2006) 1850 89 111 234 286 983 2640 3300 4660 5850
2020-02-21 16:45 12.62 4680 14300 (1997) 74 (2006) 1850 89 111 234 286 983 2640 3300 4660 5850
2020-02-21 15:45 12.61 4670 14300 (1997) 74 (2006) 1850 89 111 234 286 983 2640 3300 4660 5850
2020-02-21 14:45 12.30 4380 14300 (1997) 74 (2006) 1850 89 111 234 286 983 2640 3300 4660 5850
2020-02-21 13:45 11.72 3850 14300 (1997) 74 (2006) 1850 89 111 234 286 983 2640 3300 4660 5850
2020-02-21 12:45 11.03 3260 14300 (1997) 74 (2006) 1850 89 111 234 286 983 2640 3300 4660 5850
2020-02-21 11:45 10.42 2770 14300 (1997) 74 (2006) 1850 89 111 234 286 983 2640 3300 4660 5850
2020-02-21 10:45 10.21 2610 14300 (1997) 74 (2006) 1850 89 111 234 286 983 2640 3300 4660 5850
2020-02-21 09:45 10.46 2800 14300 (1997) 74 (2006) 1850 89 111 234 286 983 2640 3300 4660 5850
2020-02-21 08:45 10.97 3210 14300 (1997) 74 (2006) 1850 89 111 234 286 983 2640 3300 4660 5850
2020-02-21 07:45 11.53 3680 14300 (1997) 74 (2006) 1850 89 111 234 286 983 2640 3300 4660 5850
2020-02-21 06:45 12.04 4140 14300 (1997) 74 (2006) 1850 89 111 234 286 983 2640 3300 4660 5850
2020-02-21 05:45 12.47 4540 14300 (1997) 74 (2006) 1850 89 111 234 286 983 2640 3300 4660 5850
2020-02-21 04:45 12.70 4760 14300 (1997) 74 (2006) 1850 89 111 234 286 983 2640 3300 4660 5850
2020-02-21 03:45 12.70 4760 14300 (1997) 74 (2006) 1850 89 111 234 286 983 2640 3300 4660 5850
2020-02-21 02:45 12.40 4470 14300 (1997) 74 (2006) 1850 89 111 234 286 983 2640 3300 4660 5850
2020-02-21 01:45 11.83 3950 14300 (1997) 74 (2006) 1850 89 111 234 286 983 2640 3300 4660 5850
2020-02-21 00:45 11.13 3340 14300 (1997) 74 (2006) 1850 89 111 234 286 983 2640 3300 4660 5850
2020-02-20 23:45 10.52 2850 6500 (1988) 74 (2006) 1420 91 114 187 330 995 1800 2360 3940 4620
2020-02-20 22:45 10.27 2650 6500 (1988) 74 (2006) 1420 91 114 187 330 995 1800 2360 3940 4620
2020-02-20 21:45 10.49 2820 6500 (1988) 74 (2006) 1420 91 114 187 330 995 1800 2360 3940 4620
2020-02-20 20:45 10.98 3220 6500 (1988) 74 (2006) 1420 91 114 187 330 995 1800 2360 3940 4620
2020-02-20 19:45 11.51 3670 6500 (1988) 74 (2006) 1420 91 114 187 330 995 1800 2360 3940 4620
2020-02-20 18:45 12.01 4110 6500 (1988) 74 (2006) 1420 91 114 187 330 995 1800 2360 3940 4620
2020-02-20 17:45 12.39 4460 6500 (1988) 74 (2006) 1420 91 114 187 330 995 1800 2360 3940 4620
2020-02-20 16:45 12.61 4670 6500 (1988) 74 (2006) 1420 91 114 187 330 995 1800 2360 3940 4620
2020-02-20 15:45 12.57 4630 6500 (1988) 74 (2006) 1420 91 114 187 330 995 1800 2360 3940 4620
2020-02-20 14:45 12.22 4300 6500 (1988) 74 (2006) 1420 91 114 187 330 995 1800 2360 3940 4620
2020-02-20 13:45 11.57 3720 6500 (1988) 74 (2006) 1420 91 114 187 330 995 1800 2360 3940 4620
2020-02-20 12:45 10.75 3030 6500 (1988) 74 (2006) 1420 91 114 187 330 995 1800 2360 3940 4620
2020-02-20 11:45 10.03 2470 6500 (1988) 74 (2006) 1420 91 114 187 330 995 1800 2360 3940 4620
2020-02-20 10:45 9.75 2260 6500 (1988) 74 (2006) 1420 91 114 187 330 995 1800 2360 3940 4620
2020-02-20 09:45 1 2450 6500 (1988) 74 (2006) 1420 91 114 187 330 995 1800 2360 3940 4620
2020-02-20 08:45 10.52 2850 6500 (1988) 74 (2006) 1420 91 114 187 330 995 1800 2360 3940 4620
2020-02-20 07:45 11.10 3320 6500 (1988) 74 (2006) 1420 91 114 187 330 995 1800 2360 3940 4620
2020-02-20 06:45 11.65 3790 6500 (1988) 74 (2006) 1420 91 114 187 330 995 1800 2360 3940 4620
2020-02-20 05:45 12.20 4290 6500 (1988) 74 (2006) 1420 91 114 187 330 995 1800 2360 3940 4620
2020-02-20 04:45 12.60 4660 6500 (1988) 74 (2006) 1420 91 114 187 330 995 1800 2360 3940 4620
2020-02-20 03:45 12.90 4950 6500 (1988) 74 (2006) 1420 91 114 187 330 995 1800 2360 3940 4620
2020-02-20 02:45 12.93 4980 6500 (1988) 74 (2006) 1420 91 114 187 330 995 1800 2360 3940 4620
2020-02-20 01:45 12.71 4770 6500 (1988) 74 (2006) 1420 91 114 187 330 995 1800 2360 3940 4620
2020-02-20 00:45 12.28 4360 6500 (1988) 74 (2006) 1420 91 114 187 330 995 1800 2360 3940 4620
2020-02-19 23:45 11.72 3850 5040 (1988) 74 (2006) 1510 103 116 164 227 1010 2530 2960 3960 4670
2020-02-19 22:45 11.27 3460 5040 (1988) 74 (2006) 1510 103 116 164 227 1010 2530 2960 3960 4670
2020-02-19 21:45 11.10 3320 5040 (1988) 74 (2006) 1510 103 116 164 227 1010 2530 2960 3960 4670
2020-02-19 20:45 11.29 3480 5040 (1988) 74 (2006) 1510 103 116 164 227 1010 2530 2960 3960 4670
2020-02-19 19:45 11.74 3870 5040 (1988) 74 (2006) 1510 103 116 164 227 1010 2530 2960 3960 4670
2020-02-19 18:45 12.21 4290 5040 (1988) 74 (2006) 1510 103 116 164 227 1010 2530 2960 3960 4670
2020-02-19 17:45 12.60 4660 5040 (1988) 74 (2006) 1510 103 116 164 227 1010 2530 2960 3960 4670
2020-02-19 16:45 12.80 4850 5040 (1988) 74 (2006) 1510 103 116 164 227 1010 2530 2960 3960 4670
2020-02-19 15:45 12.77 4820 5040 (1988) 74 (2006) 1510 103 116 164 227 1010 2530 2960 3960 4670
2020-02-19 14:45 12.42 4490 5040 (1988) 74 (2006) 1510 103 116 164 227 1010 2530 2960 3960 4670
2020-02-19 13:45 11.85 3970 5040 (1988) 74 (2006) 1510 103 116 164 227 1010 2530 2960 3960 4670
2020-02-19 12:45 11.15 3360 5040 (1988) 74 (2006) 1510 103 116 164 227 1010 2530 2960 3960 4670
2020-02-19 11:45 10.57 2890 5040 (1988) 74 (2006) 1510 103 116 164 227 1010 2530 2960 3960 4670
2020-02-19 10:45 10.36 2720 5040 (1988) 74 (2006) 1510 103 116 164 227 1010 2530 2960 3960 4670
2020-02-19 09:45 10.63 2930 5040 (1988) 74 (2006) 1510 103 116 164 227 1010 2530 2960 3960 4670
2020-02-19 08:45 11.15 3360 5040 (1988) 74 (2006) 1510 103 116 164 227 1010 2530 2960 3960 4670
2020-02-19 07:45 11.70 3830 5040 (1988) 74 (2006) 1510 103 116 164 227 1010 2530 2960 3960 4670
2020-02-19 06:45 12.22 4300 5040 (1988) 74 (2006) 1510 103 116 164 227 1010 2530 2960 3960 4670
2020-02-19 05:45 12.64 4700 5040 (1988) 74 (2006) 1510 103 116 164 227 1010 2530 2960 3960 4670
2020-02-19 04:45 12.88 4930 5040 (1988) 74 (2006) 1510 103 116 164 227 1010 2530 2960 3960 4670
2020-02-19 03:45 12.87 4920 5040 (1988) 74 (2006) 1510 103 116 164 227 1010 2530 2960 3960 4670
2020-02-19 02:45 12.61 4670 5040 (1988) 74 (2006) 1510 103 116 164 227 1010 2530 2960 3960 4670
2020-02-19 01:45 12.08 4180 5040 (1988) 74 (2006) 1510 103 116 164 227 1010 2530 2960 3960 4670
2020-02-19 00:45 11.39 3560 5040 (1988) 74 (2006) 1510 103 116 164 227 1010 2530 2960 3960 4670
2020-02-18 23:45 10.80 3070 5510 (2008) 75 (2006) 1570 108 143 225 252 1180 2260 3000 3740 4710
2020-02-18 22:45 10.53 2850 5510 (2008) 75 (2006) 1570 108 143 225 252 1180 2260 3000 3740 4710
2020-02-18 21:45 10.72 3010 5510 (2008) 75 (2006) 1570 108 143 225 252 1180 2260 3000 3740 4710
2020-02-18 20:45 11.19 3390 5510 (2008) 75 (2006) 1570 108 143 225 252 1180 2260 3000 3740 4710
2020-02-18 19:45 11.73 3860 5510 (2008) 75 (2006) 1570 108 143 225 252 1180 2260 3000 3740 4710
2020-02-18 18:45 12.24 4320 5510 (2008) 75 (2006) 1570 108 143 225 252 1180 2260 3000 3740 4710
2020-02-18 17:45 12.63 4690 5510 (2008) 75 (2006) 1570 108 143 225 252 1180 2260 3000 3740 4710
2020-02-18 16:45 12.86 4910 5510 (2008) 75 (2006) 1570 108 143 225 252 1180 2260 3000 3740 4710
2020-02-18 15:45 12.87 4920 5510 (2008) 75 (2006) 1570 108 143 225 252 1180 2260 3000 3740 4710
2020-02-18 14:45 12.59 4650 5510 (2008) 75 (2006) 1570 108 143 225 252 1180 2260 3000 3740 4710
2020-02-18 13:45 12.04 4140 5510 (2008) 75 (2006) 1570 108 143 225 252 1180 2260 3000 3740 4710
2020-02-18 12:45 11.36 3540 5510 (2008) 75 (2006) 1570 108 143 225 252 1180 2260 3000 3740 4710
2020-02-18 11:45 10.78 3050 5510 (2008) 75 (2006) 1570 108 143 225 252 1180 2260 3000 3740 4710
2020-02-18 10:45 10.51 2840 5510 (2008) 75 (2006) 1570 108 143 225 252 1180 2260 3000 3740 4710
2020-02-18 09:45 10.72 3010 5510 (2008) 75 (2006) 1570 108 143 225 252 1180 2260 3000 3740 4710
2020-02-18 08:45 11.20 3400 5510 (2008) 75 (2006) 1570 108 143 225 252 1180 2260 3000 3740 4710
2020-02-18 07:45 11.74 3870 5510 (2008) 75 (2006) 1570 108 143 225 252 1180 2260 3000 3740 4710
2020-02-18 06:45 12.25 4330 5510 (2008) 75 (2006) 1570 108 143 225 252 1180 2260 3000 3740 4710
2020-02-18 05:45 12.64 4700 5510 (2008) 75 (2006) 1570 108 143 225 252 1180 2260 3000 3740 4710
2020-02-18 04:45 12.90 4950 5510 (2008) 75 (2006) 1570 108 143 225 252 1180 2260 3000 3740 4710
2020-02-18 03:45 12.91 4960 5510 (2008) 75 (2006) 1570 108 143 225 252 1180 2260 3000 3740 4710
2020-02-18 02:45 12.64 4700 5510 (2008) 75 (2006) 1570 108 143 225 252 1180 2260 3000 3740 4710
2020-02-18 01:45 12.12 4210 5510 (2008) 75 (2006) 1570 108 143 225 252 1180 2260 3000 3740 4710
2020-02-18 00:45 11.45 3620 5510 (2008) 75 (2006) 1570 108 143 225 252 1180 2260 3000 3740 4710

A total of 184 rows are displayed for years 1975 through 2019.